Latest Weather Observations for Coondewanna

IDW60801

Issued at 3:33 am WST Thursday 2 March 2017 (issued every 30 minutes, with the page automatically refreshed every 10 minutes)

About weather observations | Map of weather stations | Latest weather observations for WA | Other Formats
Station Details ID: 505051 Name: COONDEWANNA Lat: -22.96 Lon: 118.81 Height: 697.63 m
Data from the previous 72 hours. | See also: Recent months for locations in Western Australia
Date/Time
WST
Temp
°C
App
Temp
°C
Dew
Point
°C
Rel
Hum
%
Delta-T
°C
Wind Press
QNH
hPa
Press
MSL
hPa
Rain since
9am
mm
Dir  Spd
km/h
Gust
km/h
Spd
kts
Gust
kts
02/03:30am 22.0 24.0 17.8 77 2.7 SSW 4 7 2 4 1015.4 1009.9 4.0
02/03:00am 21.4 23.3 16.8 75 2.9 SSW 2 7 1 4 1015.3 1009.8 4.0
02/02:30am 22.5 24.2 16.3 68 3.9 SW 2 7 1 4 1015.4 1009.9 4.0
02/02:00am 21.9 23.4 17.7 77 2.7 SW 6 7 3 4 1015.3 1009.8 4.0
02/01:30am 23.5 23.5 16.3 64 4.5 SW 11 13 6 7 1015.6 1010.1 4.0
02/01:00am 23.8 23.4 16.3 63 4.7 SSW 13 15 7 8 1015.9 1010.5 4.0
02/12:30am 22.7 26.1 19.3 81 2.2 CALM 0 6 0 3 1016.2 1010.8 4.0
02/12:00am 23.0 24.6 18.3 75 3.0 SSW 7 7 4 4 1016.2 1010.8 4.0
 
Date/Time
WST
Temp
°C
App
Temp
°C
Dew
Point
°C
Rel
Hum
%
Delta-T
°C
Wind Press
QNH
hPa
Press
MSL
hPa
Rain since
9am
mm
Dir  Spd
km/h
Gust
km/h
Spd
kts
Gust
kts
01/11:30pm 22.5 26.0 19.5 83 2.0 CALM 0 0 0 0 1016.3 1010.9 4.0
01/11:00pm 22.7 25.3 18.3 76 2.8 SSW 2 6 1 3 1016.4 1011.0 4.0
01/10:30pm 23.2 26.3 18.7 76 2.9 CALM 0 6 0 3 1016.5 1011.1 4.0
01/10:00pm 24.8 25.1 17.0 62 5.0 SSW 11 15 6 8 1016.8 1011.3 4.0
01/09:30pm 24.4 25.3 17.6 66 4.4 SW 9 13 5 7 1016.8 1011.3 4.0
01/09:00pm 24.7 26.6 17.7 65 4.5 SW 4 7 2 4 1016.7 1011.2 4.0
01/08:30pm 25.8 27.4 18.2 63 4.9 SW 7 11 4 6 1016.4 1011.0 4.0
01/08:00pm 26.3 29.4 21.1 73 3.5 SSW 6 7 3 4 1016.1 1010.7 4.0
01/07:30pm 27.4 29.0 19.2 61 5.4 SSW 9 11 5 6 1015.7 1010.2 4.0
01/07:00pm 28.0 30.5 19.8 61 5.5 SW 6 7 3 4 1015.4 1009.9 4.0
01/06:30pm 28.5 31.0 21.0 64 5.1 NNW 9 9 5 5 1015.2 1009.7 4.0
01/06:00pm 29.3 31.8 19.9 57 6.3 NNW 6 7 3 4 1015.0 1009.6 4.0
01/05:30pm 30.1 32.4 19.5 53 7.1 NNW 6 6 3 3 1014.7 1009.3 4.0
01/05:00pm 29.8 32.3 17.3 47 8.1 CALM 0 0 0 0 1014.5 1009.0 4.0
01/04:30pm 29.5 32.4 18.3 51 7.4 CALM 0 4 0 2 1014.6 1009.2 4.0
01/04:00pm 29.8 30.2 17.3 47 8.1 ENE 11 19 6 10 1014.9 1009.5 4.0
01/03:30pm 29.7 29.7 17.2 47 8.1 S 13 24 7 13 1014.5 1009.0 4.0
01/03:00pm 29.5 29.8 18.0 50 7.5 SSE 13 15 7 8 1014.9 1009.5 4.0
01/02:44pm 28.2 27.8 18.0 54 6.7 S 17 20 9 11 1014.8 1009.4 4.0
01/02:30pm 25.2 23.0 16.9 60 5.3 NE 24 54 13 29 1015.5 1010.0 3.6
01/02:27pm 23.5 21.5 18.2 72 3.4 NE 26 54 14 29 1015.8 1010.3 2.8
01/02:21pm 25.4 22.6 16.3 57 5.7 ESE 26 54 14 29 1015.7 1010.2 0.2
01/02:15pm 29.3 26.1 15.4 42 8.8 SE 26 32 14 17 1015.3 1009.8 0.0
01/02:00pm 28.8 21.8 15.3 43 8.5 ESE 46 65 25 35 1014.9 1009.5 0.0
01/01:52pm 28.5 24.1 16.7 48 7.6 E 35 63 19 34 1015.0 1009.6 0.0
01/01:48pm 32.0 29.7 14.2 34 11.1 ENE 19 52 10 28 1014.9 1009.5 0.0
01/01:30pm 33.8 31.8 11.6 26 13.5 SE 13 26 7 14 1015.0 1009.6 0.0
01/01:00pm 33.9 32.7 12.8 28 13.0 NE 11 20 6 11 1015.3 1009.8 0.0
01/12:30pm 34.1 31.8 13.0 28 13.1 ENE 17 28 9 15 1015.7 1010.2 0.0
01/12:00pm 33.9 32.0 11.7 26 13.5 E 13 20 7 11 1016.1 1010.7 0.0
01/11:30am 33.6 32.3 12.6 28 12.9 E 11 20 6 11 1016.4 1011.0 0.0
01/11:00am 32.5 32.1 14.1 32 11.5 NE 9 17 5 9 1016.9 1011.4 0.0
01/10:30am 32.8 31.7 14.4 33 11.6 ENE 13 24 7 13 1017.3 1011.9 0.0
01/10:00am 31.6 32.0 16.4 40 9.8 ENE 9 17 5 9 1017.4 1012.0 0.0
01/09:30am 30.9 30.1 16.1 41 9.5 ESE 15 20 8 11 1017.6 1012.2 0.0
01/09:00am 29.9 28.9 16.7 45 8.5 ESE 17 20 9 11 1017.4 1012.0 0.0
01/08:30am 28.6 28.7 18.4 54 6.7 E 15 19 8 10 1017.4 1012.0 0.0
01/08:00am 27.4 27.8 18.1 57 6.1 E 13 17 7 9 1017.3 1011.9 0.0
01/07:30am 26.1 27.9 19.5 67 4.4 ESE 9 13 5 7 1017.3 1011.2 0.0
01/07:00am 24.1 27.1 20.8 82 2.2 NW 6 7 3 4 1017.2 1011.1 0.0
01/06:30am 23.5 27.8 21.2 87 1.6 CALM 0 0 0 0 1016.9 1010.8 0.0
01/06:00am 23.1 27.4 21.2 89 1.3 CALM 0 0 0 0 1016.3 1010.3 0.0
01/05:30am 23.4 27.7 21.1 87 1.5 CALM 0 0 0 0 1016.2 1010.1 0.0
01/05:00am 23.5 27.7 21.0 86 1.7 CALM 0 0 0 0 1016.2 1010.1 0.0
01/04:30am 23.5 27.7 21.0 86 1.7 CALM 0 0 0 0 1016.0 1009.9 0.0
01/04:00am 23.8 26.4 20.1 80 2.5 NW 6 7 3 4 1015.8 1009.7 0.0
01/03:30am 23.6 26.3 20.3 82 2.2 NW 6 7 3 4 1015.7 1009.6 0.0
01/03:00am 23.2 26.0 20.5 85 1.8 NW 6 7 3 4 1015.6 1009.5 0.0
01/02:30am 23.2 25.9 20.7 86 1.7 NW 7 9 4 5 1015.9 1009.8 0.0
01/02:00am 23.8 27.8 20.5 82 2.2 CALM 0 0 0 0 1016.0 1009.9 0.0
01/01:30am 23.5 27.5 20.6 84 1.9 CALM 0 0 0 0 1016.4 1010.4 0.0
01/01:00am 23.7 27.6 20.4 82 2.2 CALM 0 0 0 0 1016.5 1010.5 0.0
01/12:30am 23.4 26.7 20.7 85 1.8 NW 4 7 2 4 1016.9 1010.8 0.0
01/12:00am 24.2 28.7 21.5 85 1.8 CALM 0 0 0 0 1017.0 1010.9 0.0
 
Date/Time
WST
Temp
°C
App
Temp
°C
Dew
Point
°C
Rel
Hum
%
Delta-T
°C
Wind Press
QNH
hPa
Press
MSL
hPa
Rain since
9am
mm
Dir  Spd
km/h
Gust
km/h
Spd
kts
Gust
kts
28/11:30pm 24.5 27.5 20.8 80 2.5 NW 6 7 3 4 1017.0 1010.9 0.0
28/11:22pm 24.5 27.7 20.4 78 2.7 NW 4 9 2 5 1017.1 1011.0 0.0
28/11:03pm 24.4 28.0 19.7 75 3.1 CALM 0 0 0 0 1017.2 1011.1 0.0
28/11:00pm 24.3 28.3 20.6 80 2.5 CALM 0 0 0 0 1017.2 1011.1 0.0
28/10:30pm 24.4 28.3 20.3 78 2.7 CALM 0 6 0 3 1017.2 1011.1 0.0
28/10:00pm 24.6 28.4 20.1 76 3.0 CALM 0 0 0 0 1017.2 1011.1 0.0
28/09:30pm 24.4 27.3 19.9 76 3.0 NW 4 7 2 4 1017.2 1011.1 0.0
28/09:00pm 25.2 28.5 19.1 69 4.0 CALM 0 0 0 0 1017.1 1011.0 0.0
28/08:30pm 26.0 28.1 18.9 65 4.7 S 6 9 3 5 1017.0 1010.9 0.0
28/08:00pm 26.1 28.1 18.8 64 4.8 S 6 7 3 4 1016.8 1010.7 0.0
28/07:30pm 26.2 27.8 18.3 61 5.2 NW 7 11 4 6 1016.4 1010.4 0.0
28/07:00pm 27.0 27.5 17.5 56 6.1 SE 11 15 6 8 1015.7 1009.6 0.0
28/06:30pm 26.9 28.0 17.9 57 5.8 S 9 13 5 7 1015.0 1009.0 0.0
28/06:00pm 27.2 27.5 17.1 54 6.5 WSW 11 15 6 8 1014.9 1008.9 0.0
28/05:30pm 28.8 27.5 16.7 48 7.8 E 19 24 10 13 1014.3 1008.2 0.0
28/05:00pm 29.7 27.2 16.1 43 8.7 E 24 32 13 17 1014.0 1007.9 0.0
28/04:30pm 31.1 30.1 14.7 37 10.3 NE 13 22 7 12 1014.0 1007.9 0.0
28/04:00pm 31.5 31.0 15.9 39 10.0 NE 13 20 7 11 1014.0 1007.9 0.0
28/03:30pm 31.6 31.1 16.0 39 10.0 NE 13 22 7 12 1014.2 1008.1 0.0
28/03:00pm 31.5 31.2 15.5 38 10.2 NE 11 19 6 10 1014.3 1008.2 0.0
28/02:30pm 30.8 30.5 16.4 42 9.3 NE 13 22 7 12 1014.7 1008.6 0.0
28/02:00pm 30.7 30.6 15.9 40 9.5 NNE 11 17 6 9 1014.6 1008.5 0.0
28/01:30pm 30.4 30.6 16.8 44 8.8 ENE 11 15 6 8 1014.9 1008.9 0.0
28/01:00pm 30.0 30.9 17.5 47 8.1 NNE 9 17 5 9 1015.2 1009.1 0.0
28/12:30pm 29.6 31.0 18.7 52 7.2 NW 9 13 5 7 1015.5 1009.4 0.0
28/12:00pm 28.7 30.5 18.8 55 6.5 N 7 13 4 7 1015.7 1009.6 0.0
28/11:30am 28.3 30.3 18.7 56 6.3 NNW 6 11 3 6 1015.8 1009.7 0.0
28/11:00am 27.8 29.3 17.6 53 6.6 NW 6 15 3 8 1016.2 1010.1 0.0
28/10:30am 27.4 28.0 17.6 55 6.3 NNW 11 17 6 9 1016.5 1010.5 0.0
28/10:00am 26.5 27.5 17.8 58 5.6 N 9 15 5 8 1016.5 1010.5 0.0
28/09:30am 25.5 25.8 16.9 59 5.5 NE 11 17 6 9 1016.7 1010.6 0.0
28/09:00am 24.7 25.8 17.9 66 4.4 ENE 9 15 5 8 1016.8 1010.7 7.8
28/08:30am 23.7 25.8 19.0 75 3.1 E 6 7 3 4 1016.4 1010.4 7.8
28/08:00am 22.8 24.9 19.4 81 2.2 SE 7 9 4 5 1016.7 1010.6 7.8
28/07:30am 21.1 23.2 19.0 88 1.4 SE 6 9 3 5 1016.7 1010.6 7.8
28/07:00am 20.8 22.9 19.3 91 1.0 SE 7 9 4 5 1016.3 1010.3 7.8
28/06:30am 20.5 22.2 18.6 89 1.2 SE 7 9 4 5 1016.7 1010.6 7.8
28/06:00am 21.1 22.6 18.9 87 1.4 SE 9 11 5 6 1016.5 1010.5 7.8
28/05:30am 21.1 22.2 19.6 91 1.0 SE 13 17 7 9 1016.9 1010.8 7.8
28/05:00am 21.0 21.5 19.3 90 1.1 ESE 15 19 8 10 1017.0 1010.9 7.6
28/04:44am 21.1 22.4 19.2 89 1.2 ENE 11 19 6 10 1017.0 1010.9 7.4
28/04:30am 21.2 21.0 19.3 89 1.2 NE 19 26 10 14 1017.0 1010.9 7.2
28/04:00am 21.5 21.2 19.2 87 1.5 NE 19 26 10 14 1016.5 1010.5 7.2
28/03:50am 21.4 21.2 19.3 88 1.4 NE 19 30 10 16 1016.4 1010.4 7.2
28/03:30am 21.5 21.3 19.8 90 1.1 NNE 20 33 11 18 1016.1 1010.0 7.2
28/03:00am 22.6 26.3 21.4 93 0.8 SW 4 7 2 4 1015.5 1009.4 7.2
28/02:30am 22.5 25.8 21.5 94 0.7 SW 6 7 3 4 1015.5 1009.4 7.2
28/02:00am 23.1 27.7 21.7 92 0.9 CALM 0 0 0 0 1015.7 1009.6 7.2
28/01:30am 22.6 25.8 21.2 92 0.9 SW 6 7 3 4 1016.0 1009.9 7.2
28/01:00am 22.5 25.4 21.0 91 1.0 SW 7 9 4 5 1016.2 1010.1 7.2
28/12:30am 22.6 26.1 21.1 91 1.0 SW 4 7 2 4 1016.7 1010.6 6.8
28/12:00am 22.7 25.8 21.0 90 1.1 SW 6 7 3 4 1016.7 1010.6 5.6
 
Date/Time
WST
Temp
°C
App
Temp
°C
Dew
Point
°C
Rel
Hum
%
Delta-T
°C
Wind Press
QNH
hPa
Press
MSL
hPa
Rain since
9am
mm
Dir  Spd
km/h
Gust
km/h
Spd
kts
Gust
kts
27/11:30pm 22.8 27.0 20.9 89 1.3 CALM 0 0 0 0 1016.5 1010.5 5.6
27/11:00pm 22.7 26.7 20.6 88 1.4 CALM 0 0 0 0 1016.8 1010.7 5.6
27/10:30pm 22.6 26.6 20.5 88 1.4 CALM 0 0 0 0 1017.0 1010.9 5.6
27/10:00pm 22.6 25.7 20.3 87 1.5 SW 4 7 2 4 1017.5 1011.4 5.6
27/09:30pm 22.2 24.8 20.5 90 1.1 SW 7 9 4 5 1017.4 1011.3 5.6
27/09:00pm 22.3 25.1 20.8 91 1.0 SW 7 9 4 5 1017.3 1011.2 5.6
27/08:30pm 22.6 25.5 21.1 91 1.0 E 7 7 4 4 1016.9 1010.8 5.6
27/08:00pm 22.6 25.6 20.9 90 1.1 E 6 7 3 4 1016.5 1010.5 5.6
27/07:30pm 22.4 25.2 20.5 89 1.3 E 6 9 3 5 1016.2 1010.1 5.6
27/07:00pm 22.2 24.2 20.8 92 0.9 E 11 17 6 9 1016.0 1009.9 5.6
27/06:30pm 22.2 22.8 21.0 93 0.8 E 19 24 10 13 1015.7 1009.6 5.2
27/06:24pm 21.9 22.2 20.7 93 0.8 E 20 28 11 15 1015.7 1009.6 5.0
27/06:00pm 22.0 20.6 20.5 91 1.0 NE 28 43 15 23 1015.5 1009.4 2.2
27/05:54pm 22.0 20.6 20.5 91 1.0 NE 28 43 15 23 1015.4 1009.3 1.0
27/05:30pm 24.8 21.6 18.7 69 4.0 NNE 33 50 18 27 1015.0 1009.0 0.0
27/05:16pm 27.6 24.1 17.5 54 6.5 NE 32 46 17 25 1014.3 1008.2 0.0
27/05:00pm 29.9 28.4 16.3 43 8.7 NE 19 28 10 15 1013.7 1007.6 0.0
27/04:30pm 30.4 29.3 15.3 40 9.6 NNE 15 24 8 13 1013.3 1007.2 0.0
27/04:00pm 30.4 29.2 16.0 41 9.2 NE 17 26 9 14 1013.4 1007.3 0.0
27/03:30pm 30.3 29.7 16.7 44 8.8 NE 15 24 8 13 1013.7 1007.6 0.0
27/03:00pm 30.9 30.9 17.2 43 8.9 NE 13 19 7 10 1013.9 1007.8 0.0
27/02:30pm 29.2 28.1 16.4 46 8.2 NE 17 22 9 12 1014.3 1008.2 0.0
27/02:00pm 29.8 27.5 16.6 45 8.5 NE 24 37 13 20 1014.4 1008.3 0.0
27/01:30pm 30.5 27.4 14.6 38 10.0 NE 24 37 13 20 1014.5 1008.4 0.0
27/01:00pm 29.7 27.1 15.8 43 8.8 NNE 24 32 13 17 1014.8 1008.7 0.0
27/12:30pm 30.3 27.6 15.6 41 9.3 NE 24 35 13 19 1015.0 1009.0 0.0
27/12:00pm 30.9 27.0 14.5 37 10.3 ENE 28 41 15 22 1015.3 1009.2 0.0
27/11:30am 31.2 27.2 15.2 38 10.1 ENE 30 41 16 22 1015.7 1009.6 0.0
27/11:00am 30.1 26.2 15.4 41 9.3 ENE 30 44 16 24 1016.1 1010.0 0.0
27/10:30am 29.4 25.1 15.5 43 8.8 E 32 44 17 24 1016.3 1010.3 0.0
27/10:10am 29.2 25.8 15.7 44 8.6 E 28 46 15 25 1016.5 1010.5 0.0
27/10:00am 29.0 25.1 15.5 44 8.5 E 30 41 16 22 1016.7 1010.6 0.0
27/09:30am 28.3 23.6 15.9 47 7.9 E 35 52 19 28 1016.8 1010.7 0.0
27/09:23am 27.8 22.8 15.1 46 7.9 E 35 52 19 28 1016.7 1010.6 0.0
27/09:00am 27.5 25.0 16.1 49 7.2 E 24 32 13 17 1016.9 1010.8 0.0
27/08:30am 25.2 24.0 16.1 57 5.7 E 17 26 9 14 1017.3 1011.2 0.0
27/08:00am 24.7 23.8 15.9 58 5.5 E 15 22 8 12 1017.4 1011.3 0.0
27/07:30am 24.3 24.4 16.6 62 4.9 NE 11 17 6 9 1017.4 1011.3 0.0
27/07:00am 23.8 23.8 17.1 66 4.3 NE 13 24 7 13 1017.2 1011.1 0.0
27/06:30am 24.1 23.0 16.4 62 4.8 NE 17 22 9 12 1016.7 1010.6 0.0
27/06:00am 24.5 23.5 15.7 58 5.5 ENE 15 30 8 16 1016.3 1010.3 0.0
27/05:30am 22.7 23.5 17.4 72 3.4 SW 9 11 5 6 1016.0 1009.9 0.0
27/05:00am 22.8 25.3 17.3 71 3.5 CALM 0 0 0 0 1015.6 1009.5 0.0
27/04:30am 22.7 24.1 17.4 72 3.4 SSW 6 7 3 4 1015.0 1009.0 0.0
27/04:00am 22.5 25.0 17.2 72 3.4 CALM 0 0 0 0 1014.8 1008.7 0.0

Other Formats:

Comma delimited format used in spreadsheet applications
http://www.bom.gov.au/fwo/IDW60801/IDW60801.99312.axf

JavaScript Object Notation format (JSON) in row-major order
http://www.bom.gov.au/fwo/IDW60801/IDW60801.99312.json